Time;durP1;ratioP1;P1;durP2;ratioP2;P2;SDS_P1;SDS_P2;PMS_P1;PMS_P2;Temp;Humidity;BMP_temperature;BMP_pressure;BME280_temperature;BME280_humidity;BME280_pressure;Samples;Min_cycle;Max_cycle;Signal;HPM_P1;HPM_P2
2022/04/06 00:00:40;;;;;;;24.40;8.80;;;;;;;8.99;92.48;100430.53;5012202;28;20006;-72
2022/04/06 00:03:05;;;;;;;21.17;8.25;;;;;;;8.97;92.75;100424.56;5014069;28;20057;-72
2022/04/06 00:05:31;;;;;;;25.27;8.60;;;;;;;8.96;92.85;100409.75;5013401;28;20450;-72
2022/04/06 00:07:56;;;;;;;18.70;7.68;;;;;;;8.95;92.55;100413.34;4996421;28;20105;-72
2022/04/06 00:10:21;;;;;;;23.13;8.70;;;;;;;8.94;92.64;100416.91;4990908;28;20120;-72
2022/04/06 00:12:47;;;;;;;22.92;8.30;;;;;;;8.95;92.57;100406.31;4999949;28;20025;-72
2022/04/06 00:15:12;;;;;;;25.13;8.00;;;;;;;8.94;92.59;100409.03;5018626;28;20032;-72
2022/04/06 00:17:38;;;;;;;26.30;8.23;;;;;;;8.92;92.87;100409.16;5016382;28;20033;-72
2022/04/06 00:20:05;;;;;;;24.08;8.23;;;;;;;8.91;92.61;100402.22;5013222;28;20057;-72
2022/04/06 00:22:31;;;;;;;28.83;9.00;;;;;;;8.89;92.48;100404.13;5025368;28;20482;-72
2022/04/06 00:24:58;;;;;;;27.42;9.32;;;;;;;8.89;92.77;100401.50;5013109;28;20049;-72
2022/04/06 00:27:23;;;;;;;25.95;8.75;;;;;;;8.88;92.45;100410.34;5011885;28;20026;-72
2022/04/06 00:29:49;;;;;;;29.95;8.80;;;;;;;8.88;92.86;100401.63;5015115;28;20042;-72
2022/04/06 00:32:14;;;;;;;23.58;8.20;;;;;;;8.87;92.69;100390.28;5012903;28;20112;-72
2022/04/06 00:37:23;;;;;;;23.27;7.53;;;;;;;8.86;92.59;100408.78;5011033;28;20068;-72
2022/04/06 00:39:48;;;;;;;25.63;8.18;;;;;;;8.84;92.49;100405.44;4992714;28;20466;-72
2022/04/06 00:42:14;;;;;;;26.05;7.80;;;;;;;8.83;92.61;100398.50;5004508;28;20481;-72
2022/04/06 00:44:39;;;;;;;25.75;7.75;;;;;;;8.83;92.69;100393.25;5004261;28;20026;-72
2022/04/06 00:47:06;;;;;;;23.98;7.65;;;;;;;8.82;92.52;100395.06;5010848;28;20031;-72
2022/04/06 00:49:33;;;;;;;28.80;7.82;;;;;;;8.83;92.55;100398.50;5012058;28;20041;-72
2022/04/06 00:52:04;;;;;;;21.65;7.32;;;;;;;8.81;92.32;100390.75;5010952;28;20018;-72
2022/04/06 00:54:31;;;;;;;22.15;7.63;;;;;;;8.81;92.39;100387.28;5012355;28;20026;-72
2022/04/06 00:56:57;;;;;;;24.15;7.15;;;;;;;8.79;92.34;100388.22;5012276;28;20130;-72
2022/04/06 00:59:22;;;;;;;18.60;6.90;;;;;;;8.80;92.54;100383.81;5005497;28;20045;-72
2022/04/06 01:01:50;;;;;;;20.17;6.88;;;;;;;8.77;92.47;100379.63;5021210;28;20032;-73
2022/04/06 01:04:17;;;;;;;24.65;7.90;;;;;;;8.74;92.57;100379.84;5019376;28;20107;-72
2022/04/06 01:06:44;;;;;;;22.65;7.20;;;;;;;8.76;92.54;100379.75;5017366;28;20014;-72
2022/04/06 01:09:09;;;;;;;23.00;7.15;;;;;;;8.74;92.61;100379.84;5013730;28;20018;-72
2022/04/06 01:11:35;;;;;;;22.73;6.78;;;;;;;8.74;92.18;100369.38;5010699;28;20549;-72
2022/04/06 01:14:02;;;;;;;20.85;6.78;;;;;;;8.75;92.15;100375.44;5009589;28;20029;-72
2022/04/06 01:16:28;;;;;;;21.20;6.75;;;;;;;8.73;92.24;100375.56;5012201;28;20057;-73
2022/04/06 01:18:53;;;;;;;24.17;7.45;;;;;;;8.75;91.94;100375.44;5016792;28;20060;-72
2022/04/06 01:21:20;;;;;;;22.05;6.68;;;;;;;8.73;91.85;100367.69;5012873;28;20033;-72
2022/04/06 01:23:46;;;;;;;22.38;6.85;;;;;;;8.71;91.92;100369.59;5009442;28;20417;-72
2022/04/06 01:26:12;;;;;;;23.02;7.07;;;;;;;8.72;92.28;100363.41;5010388;28;20026;-72
2022/04/06 01:28:38;;;;;;;25.33;6.40;;;;;;;8.70;91.68;100367.91;5011229;28;20030;-72
2022/04/06 01:31:04;;;;;;;19.70;6.13;;;;;;;8.69;92.01;100361.00;5007167;28;20018;-72
2022/04/06 01:33:30;;;;;;;20.73;6.05;;;;;;;8.70;91.61;100361.84;5016557;28;20071;-72
2022/04/06 01:35:57;;;;;;;20.70;6.10;;;;;;;8.70;91.95;100364.47;5021232;28;20041;-72
2022/04/06 01:38:23;;;;;;;18.17;6.20;;;;;;;8.69;91.72;100363.63;5010846;28;20498;-73
2022/04/06 01:40:49;;;;;;;25.23;6.38;;;;;;;8.68;91.67;100361.94;5010253;28;20110;-72
2022/04/06 01:43:14;;;;;;;23.58;6.35;;;;;;;8.68;91.48;100355.88;5009022;28;20079;-72
2022/04/06 01:45:40;;;;;;;24.13;6.15;;;;;;;8.65;91.44;100356.94;5010370;28;20104;-72
2022/04/06 01:48:05;;;;;;;19.58;5.68;;;;;;;8.64;91.62;100351.81;5010880;28;20088;-72
2022/04/06 01:53:15;;;;;;;17.73;5.50;;;;;;;8.65;91.31;100354.31;5011511;28;20041;-72
2022/04/06 01:55:40;;;;;;;23.30;5.90;;;;;;;8.64;91.21;100357.88;5009512;28;20672;-72
2022/04/06 01:58:06;;;;;;;22.85;6.07;;;;;;;8.63;91.21;100350.97;5003028;28;20025;-72
2022/04/06 02:00:31;;;;;;;25.10;5.45;;;;;;;8.64;91.07;100346.56;5003079;28;20176;-72
2022/04/06 02:02:56;;;;;;;19.02;5.45;;;;;;;8.62;90.70;100351.91;5007471;28;20109;-72
2022/04/06 02:05:22;;;;;;;23.70;5.10;;;;;;;8.63;90.56;100344.88;5009386;28;20049;-72
2022/04/06 02:07:48;;;;;;;19.40;4.93;;;;;;;8.62;90.47;100353.72;5003272;28;20034;-72
2022/04/06 02:10:17;;;;;;;18.08;4.97;;;;;;;8.61;90.55;100347.63;5010372;28;20555;-72
2022/04/06 02:12:44;;;;;;;17.65;4.72;;;;;;;8.61;90.09;100337.13;5002442;28;20026;-72
2022/04/06 02:15:11;;;;;;;22.15;5.20;;;;;;;8.61;89.79;100336.31;5007747;28;20105;-73
2022/04/06 02:17:37;;;;;;;18.83;4.50;;;;;;;8.62;89.76;100338.81;5010074;28;20022;-73
2022/04/06 02:20:03;;;;;;;18.27;5.38;;;;;;;8.59;89.45;100331.16;5030800;28;20018;-72
2022/04/06 02:22:28;;;;;;;21.20;5.28;;;;;;;8.58;89.95;100340.00;5004830;28;20032;-72
2022/04/06 02:24:54;;;;;;;16.42;5.10;;;;;;;8.60;89.47;100335.47;5001088;28;20478;-72
2022/04/06 02:27:19;;;;;;;19.08;4.95;;;;;;;8.58;89.31;100332.13;5007790;28;20436;-72
2022/04/06 02:29:45;;;;;;;18.90;4.85;;;;;;;8.56;89.55;100334.03;5007612;28;20033;-72
2022/04/06 02:32:11;;;;;;;20.35;4.82;;;;;;;8.55;89.50;100329.72;5015476;28;20025;-72
2022/04/06 02:34:39;;;;;;;19.48;4.80;;;;;;;8.54;89.04;100329.84;5009441;28;20535;-72
2022/04/06 02:37:06;;;;;;;17.90;4.85;;;;;;;8.52;89.43;100332.56;5012417;28;20524;-72
2022/04/06 02:39:32;;;;;;;17.60;4.82;;;;;;;8.51;89.13;100320.41;5009281;28;20092;-72
2022/04/06 02:41:57;;;;;;;19.63;4.85;;;;;;;8.51;88.61;100330.91;5010979;28;20160;-72
2022/04/06 02:44:23;;;;;;;21.13;5.05;;;;;;;8.51;88.29;100319.59;5008545;28;20022;-72
2022/04/06 02:46:48;;;;;;;13.18;4.15;;;;;;;8.48;88.86;100321.47;5009381;28;20045;-73
2022/04/06 02:49:14;;;;;;;15.07;4.68;;;;;;;8.46;88.38;100318.13;5014039;28;20029;-72
2022/04/06 02:51:40;;;;;;;15.32;4.15;;;;;;;8.44;88.58;100320.03;5003684;28;20076;-72
2022/04/06 02:54:05;;;;;;;17.27;5.35;;;;;;;8.44;88.44;100313.97;5006345;28;20406;-73
2022/04/06 02:56:31;;;;;;;19.35;4.80;;;;;;;8.41;88.45;100307.16;5009669;28;20026;-72
2022/04/06 02:58:56;;;;;;;17.83;4.60;;;;;;;8.39;88.28;100311.66;5008702;28;20076;-72
2022/04/06 03:01:21;;;;;;;18.77;4.25;;;;;;;8.39;88.02;100308.19;5011676;28;20026;-72
2022/04/06 03:03:47;;;;;;;17.38;4.35;;;;;;;8.38;87.56;100309.13;5017965;28;20104;-72
2022/04/06 03:06:12;;;;;;;13.07;3.70;;;;;;;8.36;87.88;100301.38;4999552;28;20034;-72
2022/04/06 03:08:38;;;;;;;14.75;4.00;;;;;;;8.37;87.57;100296.97;5010332;28;20026;-72
2022/04/06 03:11:03;;;;;;;19.42;4.65;;;;;;;8.35;87.55;100288.41;5005661;28;20445;-72
2022/04/06 03:13:29;;;;;;;15.32;4.32;;;;;;;8.33;87.48;100292.88;5009196;28;20163;-72
2022/04/06 03:15:57;;;;;;;18.75;4.40;;;;;;;8.32;87.65;100299.06;5010108;28;20022;-72
2022/04/06 03:18:22;;;;;;;13.57;3.58;;;;;;;8.30;87.40;100287.88;5009052;28;20030;-72
2022/04/06 03:20:49;;;;;;;16.77;3.60;;;;;;;8.29;87.30;100286.19;5019871;28;20488;-72
2022/04/06 03:23:15;;;;;;;16.67;4.00;;;;;;;8.28;86.58;100279.28;5007905;28;20052;-72
2022/04/06 03:25:41;;;;;;;20.90;4.22;;;;;;;8.28;86.66;100284.53;5008057;28;20014;-73
2022/04/06 03:28:07;;;;;;;14.02;3.65;;;;;;;8.27;86.20;100283.69;5009236;28;20488;-72
2022/04/06 03:30:32;;;;;;;13.35;3.70;;;;;;;8.27;86.32;100275.81;5010440;28;20037;-72
2022/04/06 03:32:58;;;;;;;14.15;3.92;;;;;;;8.26;85.94;100274.16;5012328;28;20018;-72
2022/04/06 03:35:23;;;;;;;14.75;3.97;;;;;;;8.26;85.80;100275.94;5009715;28;20032;-72
2022/04/06 03:37:50;;;;;;;15.27;3.92;;;;;;;8.26;85.99;100265.47;5005553;28;20045;-73
2022/04/06 03:40:16;;;;;;;15.00;3.47;;;;;;;8.23;85.80;100258.66;5008447;28;20537;-72
2022/04/06 03:42:42;;;;;;;11.88;3.40;;;;;;;8.24;85.38;100260.34;5009972;28;20105;-72
2022/04/06 03:45:08;;;;;;;15.23;3.10;;;;;;;8.23;85.77;100257.81;5023942;28;20397;-72
2022/04/06 03:47:35;;;;;;;17.88;3.90;;;;;;;8.22;85.09;100258.78;5007924;28;20072;-72
2022/04/06 03:50:02;;;;;;;17.48;3.10;;;;;;;8.23;85.23;100257.81;5019885;28;20411;-72
2022/04/06 03:52:28;;;;;;;11.35;3.22;;;;;;;8.20;85.22;100256.28;5007802;28;20030;-72
2022/04/06 03:54:54;;;;;;;15.70;3.13;;;;;;;8.22;84.62;100261.41;5008731;28;20492;-72
2022/04/06 03:57:19;;;;;;;10.70;3.35;;;;;;;8.18;85.36;100253.75;5011287;28;20419;-72
2022/04/06 03:59:45;;;;;;;16.77;4.07;;;;;;;8.19;84.66;100251.97;5012741;28;20106;-72
2022/04/06 04:02:10;;;;;;;14.23;2.92;;;;;;;8.17;84.91;100254.72;5015558;28;20036;-72
2022/04/06 04:04:36;;;;;;;15.70;3.45;;;;;;;8.17;85.18;100241.59;5011986;28;20021;-72
2022/04/06 04:07:01;;;;;;;12.10;3.20;;;;;;;8.17;84.67;100254.72;5021167;28;20029;-72
2022/04/06 04:09:30;;;;;;;12.02;3.15;;;;;;;8.17;84.61;100254.72;5009176;28;20022;-72
2022/04/06 04:11:56;;;;;;;16.38;3.22;;;;;;;8.17;84.65;100248.63;5003864;28;20030;-72
2022/04/06 04:14:34;;;;;;;13.45;3.38;;;;;;;8.20;84.24;100247.56;5011807;28;20021;-72
2022/04/06 04:17:01;;;;;;;12.68;3.10;;;;;;;8.17;84.78;100249.47;5012335;28;20117;-72
2022/04/06 04:19:26;;;;;;;14.60;3.25;;;;;;;8.18;84.20;100251.13;5020355;28;20060;-72
2022/04/06 04:21:51;;;;;;;19.35;3.70;;;;;;;8.20;85.16;100255.44;5011064;28;20424;-72
2022/04/06 04:24:16;;;;;;;15.32;3.70;;;;;;;8.18;84.90;100245.91;5012339;28;20121;-72
2022/04/06 04:26:42;;;;;;;15.13;3.67;;;;;;;8.20;85.70;100244.94;5011258;28;20562;-72
2022/04/06 04:29:07;;;;;;;16.35;3.90;;;;;;;8.21;85.64;100246.63;5011204;28;20060;-72
2022/04/06 04:31:33;;;;;;;17.55;3.97;;;;;;;8.22;86.13;100245.69;5015865;28;20025;-72
2022/04/06 04:34:03;;;;;;;16.23;4.43;;;;;;;8.22;86.46;100240.44;5013611;28;20056;-72
2022/04/06 04:36:29;;;;;;;16.10;4.28;;;;;;;8.22;86.90;100240.44;5013845;28;20437;-72
2022/04/06 04:38:57;;;;;;;18.88;5.10;;;;;;;8.23;86.96;100236.84;5008524;28;20057;-72
2022/04/06 04:41:23;;;;;;;18.75;5.18;;;;;;;8.22;87.32;100237.81;5001244;28;20026;-72
2022/04/06 04:43:50;;;;;;;21.00;5.63;;;;;;;8.24;87.91;100233.28;5013661;28;20033;-72
2022/04/06 04:46:15;;;;;;;22.60;5.65;;;;;;;8.24;87.51;100235.91;5004765;28;20156;-72
2022/04/06 04:48:41;;;;;;;21.55;5.90;;;;;;;8.24;87.62;100231.50;5015427;28;20049;-72
2022/04/06 04:51:06;;;;;;;21.88;6.18;;;;;;;8.25;87.63;100232.34;5011106;28;20544;-72
2022/04/06 04:53:33;;;;;;;21.52;5.60;;;;;;;8.26;87.87;100226.16;5012863;28;20394;-72
2022/04/06 04:55:58;;;;;;;22.73;6.15;;;;;;;8.26;87.73;100218.28;5010800;28;20053;-72
2022/04/06 04:58:23;;;;;;;22.70;6.50;;;;;;;8.26;87.81;100220.91;5004778;28;20482;-72
2022/04/06 05:00:48;;;;;;;22.70;5.93;;;;;;;8.26;88.20;100228.78;5012770;28;20442;-72
2022/04/06 05:03:14;;;;;;;15.23;5.78;;;;;;;8.27;87.97;100217.34;5009838;28;20209;-72
2022/04/06 05:05:42;;;;;;;23.25;6.55;;;;;;;8.26;87.75;100216.50;5025955;28;20025;-72
2022/04/06 05:08:08;;;;;;;21.20;6.63;;;;;;;8.26;88.12;100215.66;5004090;28;20472;-72
2022/04/06 05:10:33;;;;;;;23.98;6.47;;;;;;;8.26;87.43;100220.91;5002441;28;20134;-72
2022/04/06 05:13:02;;;;;;;18.80;5.72;;;;;;;8.27;87.80;100222.56;5010696;28;20025;-72
2022/04/06 05:15:27;;;;;;;16.20;6.10;;;;;;;8.27;87.71;100212.94;5011150;28;20437;-72
2022/04/06 05:17:52;;;;;;;18.85;5.57;;;;;;;8.27;87.12;100217.34;5010003;28;20053;-72
2022/04/06 05:20:18;;;;;;;17.83;5.40;;;;;;;8.27;87.27;100212.09;5008780;28;20025;-72
2022/04/06 05:22:43;;;;;;;21.92;5.82;;;;;;;8.27;87.23;100206.84;5010108;28;20454;-72
2022/04/06 05:25:09;;;;;;;19.80;5.65;;;;;;;8.28;86.94;100211.97;5009976;28;20022;-72
2022/04/06 05:27:55;;;;;;;17.52;5.20;;;;;;;8.30;86.84;100201.38;5010645;28;20446;-72
2022/04/06 05:30:23;;;;;;;18.55;5.38;;;;;;;8.28;87.28;100205.91;5008543;28;20512;-72
2022/04/06 05:32:51;;;;;;;19.55;5.20;;;;;;;8.28;86.87;100208.53;5002955;28;20025;-72
2022/04/06 05:35:17;;;;;;;16.15;4.97;;;;;;;8.29;86.50;100205.78;5010797;28;20030;-72
2022/04/06 05:37:44;;;;;;;16.15;4.57;;;;;;;8.30;87.13;100211.88;5010059;28;20050;-69
2022/04/06 05:40:12;;;;;;;15.05;4.78;;;;;;;8.30;86.79;100209.25;5010065;28;20034;-72
2022/04/06 05:42:37;;;;;;;13.27;4.30;;;;;;;8.28;87.13;100208.53;5007566;28;20014;-72
2022/04/06 05:45:04;;;;;;;16.88;4.32;;;;;;;8.30;86.33;100209.25;5003168;28;20045;-72
2022/04/06 05:47:29;;;;;;;16.88;4.43;;;;;;;8.29;86.13;100194.47;5009664;28;20494;-72
2022/04/06 05:49:55;;;;;;;16.30;3.80;;;;;;;8.29;85.87;100200.53;5010967;28;20048;-72
2022/04/06 05:52:20;;;;;;;15.00;3.95;;;;;;;8.30;85.65;100202.22;5011268;28;20105;-72
2022/04/06 05:54:45;;;;;;;14.07;3.90;;;;;;;8.31;85.16;100200.44;5004624;28;20109;-72
2022/04/06 05:57:11;;;;;;;14.35;4.00;;;;;;;8.30;84.41;100196.13;5005602;28;20030;-72
2022/04/06 05:59:40;;;;;;;18.48;4.15;;;;;;;8.32;85.00;100191.63;5009716;28;20493;-72
2022/04/06 06:02:07;;;;;;;12.02;3.55;;;;;;;8.32;84.06;100191.63;5011434;28;20029;-72
2022/04/06 06:04:33;;;;;;;13.43;3.08;;;;;;;8.33;83.38;100198.53;5011721;28;20053;-72
2022/04/06 06:06:59;;;;;;;8.88;2.67;;;;;;;8.35;83.38;100188.78;5000568;28;20072;-72
2022/04/06 06:09:27;;;;;;;14.43;2.40;;;;;;;8.35;82.69;100199.28;4990672;28;20581;-72
2022/04/06 06:11:54;;;;;;;9.45;2.38;;;;;;;8.37;81.65;100200.00;4989911;28;20030;-72
2022/04/06 06:14:20;;;;;;;9.43;2.10;;;;;;;8.39;81.52;100208.56;4994074;28;20092;-72
2022/04/06 06:16:45;;;;;;;11.38;2.40;;;;;;;8.39;81.37;100200.72;5010114;28;20473;-73
2022/04/06 06:19:11;;;;;;;10.95;2.72;;;;;;;8.41;80.53;100214.56;5009364;28;20030;-72
2022/04/06 06:21:36;;;;;;;10.40;2.20;;;;;;;8.42;78.60;100218.88;5010044;28;20025;-72
2022/04/06 06:24:05;;;;;;;9.15;2.60;;;;;;;8.43;78.33;100210.88;5016044;28;20481;-72
2022/04/06 06:26:31;;;;;;;7.70;1.95;;;;;;;8.44;77.39;100209.09;5006819;28;20431;-69
2022/04/06 06:28:57;;;;;;;6.43;2.55;;;;;;;8.44;77.41;100207.31;5008685;28;20029;-72
2022/04/06 06:31:22;;;;;;;6.40;1.98;;;;;;;8.46;77.73;100199.34;5010323;28;20022;-72
2022/04/06 06:33:48;;;;;;;6.72;2.05;;;;;;;8.48;78.19;100205.28;5011406;28;20096;-72
2022/04/06 06:36:13;;;;;;;9.55;2.05;;;;;;;8.48;76.57;100195.63;5006891;28;20022;-72
2022/04/06 06:38:39;;;;;;;8.00;1.80;;;;;;;8.52;75.84;100204.09;5009146;28;20045;-72
2022/04/06 06:41:04;;;;;;;6.47;1.60;;;;;;;8.53;75.58;100192.66;5004510;28;20112;-72
2022/04/06 06:43:29;;;;;;;5.90;1.63;;;;;;;8.54;76.35;100196.13;5009177;28;20021;-72
2022/04/06 06:45:55;;;;;;;8.88;1.65;;;;;;;8.54;77.19;100183.84;5008463;28;20062;-72
2022/04/06 06:48:21;;;;;;;8.73;2.08;;;;;;;8.56;76.00;100191.59;4998650;28;20044;-72
2022/04/06 06:50:46;;;;;;;7.72;1.63;;;;;;;8.57;75.35;100186.25;5009124;28;20073;-72
2022/04/06 06:53:11;;;;;;;7.15;1.77;;;;;;;8.58;75.68;100182.66;5015891;28;20030;-72
2022/04/06 06:55:36;;;;;;;9.32;1.92;;;;;;;8.61;75.07;100186.84;5017994;28;20030;-72
2022/04/06 06:58:02;;;;;;;8.60;1.77;;;;;;;8.63;74.80;100193.63;5007081;28;20033;-72
2022/04/06 07:00:27;;;;;;;6.70;1.65;;;;;;;8.66;74.11;100182.91;5010223;28;20033;-72
2022/04/06 07:02:53;;;;;;;9.98;1.65;;;;;;;8.68;75.10;100190.66;5008986;28;20064;-72
2022/04/06 07:05:18;;;;;;;8.70;1.80;;;;;;;8.70;74.93;100186.97;5008339;28;20101;-72
2022/04/06 07:07:47;;;;;;;9.73;1.80;;;;;;;8.71;75.14;100186.00;5008507;28;20106;-72
2022/04/06 07:10:13;;;;;;;9.00;2.10;;;;;;;8.72;75.06;100192.91;5010201;28;20037;-72
2022/04/06 07:12:38;;;;;;;8.38;2.13;;;;;;;8.73;75.13;100191.13;5009644;28;20017;-72
2022/04/06 07:15:04;;;;;;;10.13;2.15;;;;;;;8.71;75.28;100186.00;5007986;28;20034;-72
2022/04/06 07:17:29;;;;;;;8.77;2.13;;;;;;;8.71;76.09;100186.00;5009333;28;20105;-72
2022/04/06 07:19:57;;;;;;;9.48;2.47;;;;;;;8.70;77.47;100179.09;5009401;28;20022;-72
2022/04/06 07:22:22;;;;;;;11.88;3.00;;;;;;;8.72;78.41;100181.59;5013948;28;20017;-72
2022/04/06 07:24:48;;;;;;;9.48;2.67;;;;;;;8.70;79.16;100181.72;5015541;28;20083;-72
2022/04/06 07:27:13;;;;;;;11.63;3.13;;;;;;;8.72;79.86;100181.59;5008598;28;20393;-70
2022/04/06 07:29:38;;;;;;;10.23;3.38;;;;;;;8.71;80.92;100175.50;5009315;28;20151;-71
2022/04/06 07:32:04;;;;;;;13.65;3.20;;;;;;;8.72;81.12;100171.94;5010432;28;20030;-72
2022/04/06 07:34:29;;;;;;;15.10;3.45;;;;;;;8.74;80.74;100163.94;5020126;28;20470;-72
2022/04/06 07:36:55;;;;;;;11.27;3.60;;;;;;;8.74;81.24;100171.81;5013039;28;20533;-71
2022/04/06 07:39:20;;;;;;;11.95;3.55;;;;;;;8.73;81.34;100162.28;5011436;28;20367;-72
2022/04/06 07:41:45;;;;;;;11.73;3.63;;;;;;;8.74;81.26;100162.16;5013292;28;20033;-71
2022/04/06 07:44:11;;;;;;;15.90;3.60;;;;;;;8.74;81.98;100164.78;5012518;28;20030;-71
2022/04/06 07:46:39;;;;;;;15.57;4.32;;;;;;;8.74;81.63;100143.81;5012209;28;20096;-71
2022/04/06 07:49:06;;;;;;;12.65;4.20;;;;;;;8.75;81.97;100155.97;5013001;28;20024;-72
2022/04/06 07:51:31;;;;;;;13.07;3.63;;;;;;;8.77;81.97;100140.09;5013147;28;20088;-71
2022/04/06 07:53:57;;;;;;;10.93;3.20;;;;;;;8.79;81.64;100141.66;4998093;28;20030;-71
2022/04/06 07:56:22;;;;;;;9.75;3.60;;;;;;;8.81;81.58;100136.31;5014345;28;20390;-72
2022/04/06 07:58:47;;;;;;;10.52;3.65;;;;;;;8.87;81.72;100127.97;5026852;28;20017;-71
2022/04/06 08:01:12;;;;;;;11.07;3.53;;;;;;;8.93;82.18;100131.88;5021176;28;20036;-71
2022/04/06 08:03:38;;;;;;;15.65;3.33;;;;;;;8.98;81.78;100137.59;5017631;28;20034;-71
2022/04/06 08:06:04;;;;;;;9.48;3.33;;;;;;;9.01;81.17;100134.75;5009854;28;20026;-71
2022/04/06 08:08:29;;;;;;;11.07;3.28;;;;;;;9.04;81.15;100129.25;5012689;28;20036;-71
2022/04/06 08:10:55;;;;;;;9.75;3.28;;;;;;;9.07;80.80;100131.63;5012754;28;20029;-71
2022/04/06 08:13:20;;;;;;;15.88;3.80;;;;;;;9.08;80.30;100134.13;5005556;28;20453;-72
2022/04/06 08:15:45;;;;;;;14.30;3.70;;;;;;;9.10;80.61;100139.25;5023153;28;20021;-71
2022/04/06 08:18:11;;;;;;;9.50;3.33;;;;;;;9.11;80.01;100127.81;5012970;28;20025;-72
2022/04/06 08:20:37;;;;;;;10.82;3.10;;;;;;;9.11;79.72;100130.44;5011535;28;20041;-71
2022/04/06 08:23:02;;;;;;;10.90;3.25;;;;;;;9.11;80.38;100133.06;5012602;28;20224;-71
2022/04/06 08:25:27;;;;;;;12.98;3.20;;;;;;;9.11;80.40;100130.44;5012240;28;20125;-71
2022/04/06 08:27:53;;;;;;;9.70;3.13;;;;;;;9.11;79.85;100135.69;5016212;28;20504;-71
2022/04/06 08:30:22;;;;;;;11.80;3.20;;;;;;;9.10;80.20;100140.09;5015901;28;20100;-71
2022/04/06 08:32:48;;;;;;;11.82;2.85;;;;;;;9.10;79.75;100139.25;5010510;28;20037;-71
2022/04/06 08:35:13;;;;;;;10.52;3.28;;;;;;;9.09;80.47;100137.59;5020289;28;20415;-71
2022/04/06 08:37:40;;;;;;;9.13;3.10;;;;;;;9.07;80.00;100131.63;5012674;28;20192;-72
2022/04/06 08:40:12;;;;;;;9.15;2.92;;;;;;;9.08;80.19;100141.16;5011921;28;20529;-70
2022/04/06 08:42:37;;;;;;;10.32;2.72;;;;;;;9.08;80.30;100142.00;5008495;28;20026;-70
2022/04/06 08:45:04;;;;;;;11.77;3.13;;;;;;;9.08;80.26;100135.91;5011331;28;20152;-73
2022/04/06 08:47:33;;;;;;;12.70;2.90;;;;;;;9.08;80.53;100134.13;5008787;28;20448;-73
2022/04/06 08:50:03;;;;;;;7.68;2.50;;;;;;;9.09;79.99;100132.34;5005200;28;20057;-73
2022/04/06 08:52:31;;;;;;;11.73;3.25;;;;;;;9.11;79.99;100130.44;5000164;28;20024;-73
2022/04/06 08:54:57;;;;;;;8.55;2.65;;;;;;;9.13;80.48;100117.19;5001540;28;20026;-73
2022/04/06 08:57:22;;;;;;;11.32;2.97;;;;;;;9.16;80.53;100125.66;5004546;28;20048;-73
2022/04/06 08:59:49;;;;;;;9.50;2.78;;;;;;;9.17;80.53;100114.19;5006259;28;20109;-73
2022/04/06 09:02:18;;;;;;;10.48;3.15;;;;;;;9.19;80.50;100121.94;4998631;28;20025;-73
2022/04/06 09:04:48;;;;;;;12.55;3.15;;;;;;;9.20;80.96;100131.47;5003662;28;20390;-72
2022/04/06 09:07:13;;;;;;;10.60;3.15;;;;;;;9.18;81.14;100125.53;5000281;28;20038;-73
2022/04/06 09:09:39;;;;;;;12.30;3.30;;;;;;;9.17;81.31;100124.69;4999176;28;20035;-73
2022/04/06 09:12:15;;;;;;;10.80;3.13;;;;;;;9.18;81.67;100128.97;4998766;28;20018;-73
2022/04/06 09:14:40;;;;;;;12.32;3.47;;;;;;;9.20;81.82;100124.44;5000378;28;20157;-73
2022/04/06 09:17:07;;;;;;;13.75;3.40;;;;;;;9.22;81.85;100126.97;4998566;28;20500;-72
2022/04/06 09:19:37;;;;;;;12.88;3.67;;;;;;;9.25;81.88;100127.56;4998206;28;20049;-73
2022/04/06 09:22:07;;;;;;;15.35;3.40;;;;;;;9.26;83.21;100121.34;4998574;28;20018;-73
2022/04/06 09:24:32;;;;;;;12.38;3.53;;;;;;;9.27;83.14;100116.94;4997335;28;20037;-74
2022/04/06 09:27:04;;;;;;;9.32;3.40;;;;;;;9.29;83.39;100118.47;5001397;28;20453;-73
2022/04/06 09:29:30;;;;;;;11.63;3.50;;;;;;;9.29;82.15;100125.53;4999330;28;20033;-73
2022/04/06 09:32:05;;;;;;;9.82;2.85;;;;;;;9.29;82.33;100118.47;4999071;28;20440;-73
2022/04/06 09:34:33;;;;;;;10.90;3.40;;;;;;;9.29;82.72;100122.91;4997651;28;20026;-73
2022/04/06 09:36:58;;;;;;;8.38;2.95;;;;;;;9.29;81.62;100110.59;5003659;28;20117;-73
2022/04/06 09:39:48;;;;;;;10.23;3.08;;;;;;;9.32;82.24;100118.22;4999369;28;20557;-73
2022/04/06 09:42:26;;;;;;;12.48;3.33;;;;;;;9.32;82.23;100120.03;4998017;28;20026;-73
2022/04/06 09:47:53;;;;;;;8.35;3.25;;;;;;;9.31;81.69;100111.31;4999090;28;20482;-73
2022/04/06 09:50:23;;;;;;;9.43;3.17;;;;;;;9.32;82.02;100123.47;4999499;28;20096;-73
2022/04/06 09:52:51;;;;;;;9.60;3.40;;;;;;;9.34;82.48;100116.31;4999928;28;20018;-73
2022/04/06 09:55:18;;;;;;;14.20;3.55;;;;;;;9.36;83.11;100110.94;5007046;28;20034;-73
2022/04/06 09:57:55;;;;;;;15.48;3.42;;;;;;;9.38;82.19;100117.72;5003103;28;20026;-73
2022/04/06 10:00:26;;;;;;;14.63;3.10;;;;;;;9.39;82.56;100111.53;5005003;28;20033;-73
2022/04/06 10:03:10;;;;;;;11.25;3.13;;;;;;;9.42;81.97;100111.28;5001827;28;20032;-73
2022/04/06 10:05:38;;;;;;;10.63;3.40;;;;;;;9.41;83.50;100100.91;5004738;28;20080;-74
2022/04/06 10:08:05;;;;;;;8.90;3.17;;;;;;;9.43;84.60;100105.06;4997676;28;20030;-73
2022/04/06 10:10:38;;;;;;;14.57;3.92;;;;;;;9.45;84.96;100102.31;5002839;28;20031;-73
2022/04/06 10:13:04;;;;;;;10.20;3.22;;;;;;;9.46;84.37;100097.91;4997675;28;20116;-73
2022/04/06 10:15:30;;;;;;;8.82;2.92;;;;;;;9.44;82.70;100100.66;5004614;28;20026;-73
2022/04/06 10:17:56;;;;;;;10.40;2.90;;;;;;;9.47;83.14;100100.41;5001392;28;20853;-73
2022/04/06 10:20:43;;;;;;;10.48;3.00;;;;;;;9.48;83.78;100095.97;5001422;28;20037;-73
2022/04/06 10:23:26;;;;;;;9.73;3.08;;;;;;;9.48;85.27;100102.06;5001269;28;20380;-73
2022/04/06 10:26:06;;;;;;;11.45;2.88;;;;;;;9.48;84.28;100088.09;5003726;28;20545;-73
2022/04/06 10:28:33;;;;;;;7.22;2.90;;;;;;;9.47;84.30;100091.69;4996919;28;20030;-70
2022/04/06 10:31:16;;;;;;;11.73;3.60;;;;;;;9.46;84.34;100092.66;5002470;28;20109;-73
2022/04/06 10:33:42;;;;;;;12.73;3.50;;;;;;;9.42;84.32;100087.66;5000206;28;20030;-73
2022/04/06 10:36:28;;;;;;;11.60;3.78;;;;;;;9.45;84.29;100090.97;4999231;28;20041;-73
2022/04/06 10:39:09;;;;;;;12.02;3.55;;;;;;;9.43;84.11;100091.09;4999514;28;20137;-73
2022/04/06 10:41:39;;;;;;;12.35;3.35;;;;;;;9.41;83.25;100091.22;4995687;28;20022;-73
2022/04/06 10:44:04;;;;;;;9.77;3.40;;;;;;;9.42;84.25;100092.91;4993037;28;20017;-73
2022/04/06 10:46:35;;;;;;;8.63;3.70;;;;;;;9.42;83.98;100087.66;4992673;28;20220;-72
2022/04/06 10:49:06;;;;;;;13.35;3.72;;;;;;;9.41;85.11;100085.97;4992028;28;20569;-72
2022/04/06 10:51:37;;;;;;;10.90;3.10;;;;;;;9.40;84.47;100079.06;4995464;28;20037;-72
2022/04/06 10:54:12;;;;;;;10.02;3.20;;;;;;;9.40;83.52;100079.06;5000004;28;20078;-72
2022/04/06 10:56:49;;;;;;;8.40;3.38;;;;;;;9.40;84.31;100076.44;4995764;28;20030;-72
2022/04/06 10:59:21;;;;;;;10.32;3.15;;;;;;;9.41;83.93;100074.63;5002818;28;20395;-72
2022/04/06 11:01:51;;;;;;;11.05;2.85;;;;;;;9.43;84.19;100073.56;5005091;28;20563;-72
2022/04/06 11:04:20;;;;;;;7.80;2.85;;;;;;;9.43;84.24;100076.19;4997232;28;20124;-72
2022/04/06 11:06:48;;;;;;;5.10;2.70;;;;;;;9.45;83.99;100072.59;5002233;28;20051;-71
2022/04/06 11:12:12;;;;;;;8.00;2.92;;;;;;;9.48;83.23;100059.22;5001720;28;20053;-71
2022/04/06 11:14:38;;;;;;;10.60;2.80;;;;;;;9.49;82.66;100066.13;5001384;28;20026;-71
2022/04/06 11:17:30;;;;;;;7.70;3.05;;;;;;;9.52;83.18;100058.00;5004116;28;20165;-71
2022/04/06 11:19:56;;;;;;;6.60;3.17;;;;;;;9.51;83.23;100048.47;4999704;28;20026;-71
2022/04/06 11:22:22;;;;;;;12.25;2.92;;;;;;;9.57;82.88;100050.56;5008604;28;20014;-71
2022/04/06 11:24:48;;;;;;;8.18;3.10;;;;;;;9.58;81.85;100050.44;5003070;28;20038;-71
2022/04/06 11:27:30;;;;;;;8.10;3.22;;;;;;;9.62;81.95;100045.81;5003852;28;20088;-71
2022/04/06 11:29:58;;;;;;;11.20;3.70;;;;;;;9.63;81.36;100042.22;4999568;28;20030;-71
2022/04/06 11:32:24;;;;;;;12.05;3.22;;;;;;;9.65;80.52;100056.88;5013650;28;20470;-71
2022/04/06 11:34:49;;;;;;;8.15;3.22;;;;;;;9.67;80.51;100046.25;5013811;28;20175;-71
2022/04/06 11:37:14;;;;;;;10.30;3.00;;;;;;;9.69;79.96;100046.94;5014396;28;20030;-71